This is the latest recevied weather packets stored in our database for station/object JI1UWB-13. If no packets are shown the sender has not sent any weather packets the latest 10 day(s).
| Time | Temp. | Humidity | Pressure | Rain* | Wind** | Luminosity | Snow |
|---|---|---|---|---|---|---|---|
| 1777758917 | 17.22° C | 62% | 1014 hPa | 0 mm | - | - | - |
| 1777755317 | 16.67° C | 62% | 1013.6 hPa | 0 mm | - | - | - |
| 1777754117 | 16.11° C | 61% | 1013.3 hPa | 0 mm | - | - | - |
| 1777752918 | 16.11° C | 58% | 1013.1 hPa | 0 mm | - | - | - |
| 1777751716 | 16.11° C | 57% | 1013.2 hPa | 0 mm | - | - | - |
| 1777742117 | 17.78° C | 55% | 1012.7 hPa | 0 mm | - | - | - |
| 1777740918 | 18.33° C | 53% | 1012.7 hPa | 0 mm | - | - | - |
| 1777740316 | 18.33° C | 53% | 1012.7 hPa | 0 mm | - | - | - |
| 1777736717 | 18.33° C | 43% | 1013 hPa | 0 mm | - | - | - |
| 1777722916 | 21.67° C | 28% | 1011.6 hPa | 0 mm | - | - | - |
| 1777721718 | 21.67° C | 28% | 1011.3 hPa | 0 mm | - | - | - |
| 1777718759 | 22.22° C | 27% | 1010.4 hPa | 0 mm | - | - | - |
| 1777716338 | 22.78° C | 26% | 1010.2 hPa | 0 mm | - | - | - |
| 1777711558 | 25.56° C | 21% | 1009.2 hPa | 0 mm | - | - | - |
| 1777710917 | 26.11° C | 20% | 1009 hPa | 0 mm | - | - | - |
| 1777710319 | 26.11° C | 20% | 1008.9 hPa | 0 mm | - | - | - |
| 1777708539 | 27.78° C | 19% | 1008.6 hPa | 0 mm | - | - | - |
| 1777707337 | 27.78° C | 18% | 1008.3 hPa | 0 mm | - | - | - |
| 1777705517 | 29.44° C | 17% | 1007.9 hPa | 0 mm | - | - | - |
| 1777704318 | 30° C | 17% | 1007.8 hPa | 0 mm | - | - | - |
| 1777698323 | 29.44° C | 18% | 1006.4 hPa | 0 mm | - | - | - |
| 1777693517 | 28.33° C | 19% | 1006.3 hPa | 0 mm | - | - | - |
| 1777689917 | 27.22° C | 22% | 1005.5 hPa | 0 mm | - | - | - |
| 1777685718 | 26.11° C | 24% | 1004.6 hPa | 0 mm | - | - | - |
| 1777685116 | 26.11° C | 25% | 1004.7 hPa | 0 mm | - | - | - |
* Rain latest hour (hover to see other rain measurements)
** Current wind speed in m/s (hover to see current wind gust speed)